Portada
METAR-TAF:

METAR-TAF

Aeroports :

Sint Maarten, Antilles Neerlandeses

latitud: 18-03N, longitud: 063-07W, altitud: 4 m

Observació

L'informe es va fer fa 25 minuts, a les 03:00 UTC
Vent 8 kt del Nord-Est
Temperatura 27°C
Humitat 84%
Pressió 1017 hPa
Visibilitat 10 km o més
Escasses núvols a una alçada de 1800 ft

METAR: TNCM 200300Z 04008KT 9999 FEW018 27/24 Q1017

Hora: 23:25 (03:25 UTC)

Pronòstic

L'informe es va fer fa 5 hores i 25 minuts, a les 22:00 UTC
Pronòstic vàlid del 20 a les 00 UTC al 20 a les 24 UTC
Vent 3 kt amb direcció variable
Visibilitat 10 km o més
Núvols disperses a una alçada de 1800 ft
xàfecs en les proximitats
Evolucionant progressivament
l' 20 a les 06 UTC al 20 a les 10 UTC
Vent 6 kt del Est/Nord-Est
Núvols disperses a una alçada de 1600 ft

TAF: TNCM 192200Z 2000/2024 VRB03KT 9999 VCSH SCT018 BECMG 2006/2010 06006KT SCT016

Observacions i pronòstics meteorològics de més de 4000 aeroports (METAR i TAF).

Les estacions disponibles són els punts grocs i vermells al mapa.

Posi el ratolí al punt desitjat per veure el nom de l'estació.

Feu clic per veure les observacions i els pronòstics meteorològics.

Per canviar el mapa: feu clic els botons verds amb una creu de color negre per apropar; al botó verd amb un guió per allunyar la imatge; o en les fletxes verdes per a mapes adjacents.


METAR-TAF: